createdAt,value
2023-09-29T00:00:16.347Z,9.70
2023-09-29T00:02:19.974Z,9.05
2023-09-29T00:04:23.833Z,8.73
2023-09-29T00:06:28.122Z,12.15
2023-09-29T00:08:33.831Z,7.65
2023-09-29T00:10:40.873Z,8.15
2023-09-29T00:12:44.520Z,10.40
2023-09-29T00:14:49.282Z,7.35
2023-09-29T00:16:54.254Z,8.85
2023-09-29T00:18:58.232Z,7.80
2023-09-29T00:21:01.967Z,7.65
2023-09-29T00:23:06.621Z,9.38
2023-09-29T00:25:11.518Z,8.38
2023-09-29T00:27:15.500Z,8.70
2023-09-29T00:29:19.147Z,7.57
2023-09-29T00:31:23.155Z,7.10
2023-09-29T00:33:26.002Z,8.63
2023-09-29T00:35:30.220Z,7.03
2023-09-29T00:37:34.188Z,6.55
2023-09-29T00:39:37.940Z,7.70
2023-09-29T00:41:43.694Z,8.90
2023-09-29T00:43:48.481Z,7.55
2023-09-29T00:45:52.165Z,7.38
2023-09-29T00:47:58.594Z,10.18
2023-09-29T00:50:02.741Z,8.43
2023-09-29T00:52:07.623Z,7.95
2023-09-29T00:54:11.780Z,9.13
2023-09-29T00:56:16.115Z,8.90
2023-09-29T00:58:21.072Z,9.85
2023-09-29T01:00:34.006Z,7.85
2023-09-29T01:02:38.667Z,6.95
2023-09-29T01:04:42.406Z,7.13
2023-09-29T01:06:44.933Z,9.95
2023-09-29T01:08:49.030Z,9.27
2023-09-29T01:10:54.208Z,9.70
2023-09-29T01:12:57.053Z,9.70
2023-09-29T01:15:02.192Z,9.00
2023-09-29T01:17:10.378Z,11.07
2023-09-29T01:19:14.293Z,10.93
2023-09-29T01:21:16.964Z,8.80
2023-09-29T01:23:21.550Z,7.90
2023-09-29T01:25:25.585Z,7.88
2023-09-29T01:27:29.803Z,8.05
2023-09-29T01:29:33.401Z,9.77
2023-09-29T01:31:38.986Z,8.30
2023-09-29T01:33:42.957Z,7.30
2023-09-29T01:35:46.809Z,8.93
2023-09-29T01:37:50.388Z,8.38
2023-09-29T01:39:54.058Z,9.93
2023-09-29T01:41:59.970Z,7.85
2023-09-29T01:44:03.972Z,8.55
2023-09-29T01:46:09.181Z,9.98
2023-09-29T01:48:13.842Z,8.43
2023-09-29T01:50:17.840Z,8.32
2023-09-29T01:52:23.549Z,8.93
2023-09-29T01:54:27.133Z,8.35
2023-09-29T01:56:32.499Z,9.52
2023-09-29T01:58:37.702Z,8.48
2023-09-29T02:00:44.271Z,9.35
2023-09-29T02:02:48.263Z,8.52
2023-09-29T02:04:54.101Z,8.20
2023-09-29T02:06:58.027Z,9.77
2023-09-29T02:09:01.654Z,10.52
2023-09-29T02:11:06.023Z,6.78
2023-09-29T02:13:10.030Z,8.95
2023-09-29T02:15:15.017Z,7.47
2023-09-29T02:17:19.462Z,7.70
2023-09-29T02:19:23.090Z,9.32
2023-09-29T02:21:29.572Z,8.98
2023-09-29T02:23:35.009Z,10.43
2023-09-29T02:25:38.766Z,9.65
2023-09-29T02:27:41.939Z,10.77
2023-09-29T02:29:46.076Z,9.20
2023-09-29T02:31:51.627Z,8.52
2023-09-29T02:33:55.463Z,9.10
2023-09-29T02:35:59.448Z,9.85
2023-09-29T02:38:04.688Z,14.57
2023-09-29T02:40:14.496Z,11.40
2023-09-29T02:42:18.625Z,12.02
2023-09-29T02:44:22.668Z,10.50
2023-09-29T02:46:26.571Z,8.55
2023-09-29T02:48:32.051Z,12.10
2023-09-29T02:50:37.721Z,11.57
2023-09-29T02:52:43.726Z,10.07
2023-09-29T02:54:47.540Z,10.57
2023-09-29T02:56:52.128Z,11.07
2023-09-29T02:58:56.422Z,12.63
2023-09-29T03:01:00.433Z,12.38
2023-09-29T03:03:05.226Z,13.05
2023-09-29T03:05:10.926Z,12.32
2023-09-29T03:07:15.047Z,12.77
2023-09-29T03:09:20.045Z,11.38
2023-09-29T03:11:23.808Z,11.25
2023-09-29T03:13:27.663Z,12.55
2023-09-29T03:15:31.307Z,10.68
2023-09-29T03:17:33.949Z,10.93
2023-09-29T03:19:38.151Z,13.55
2023-09-29T03:21:43.598Z,11.52
2023-09-29T03:23:47.533Z,10.77
2023-09-29T03:25:51.273Z,10.93
2023-09-29T03:27:55.289Z,12.43
2023-09-29T03:30:00.388Z,11.40
2023-09-29T03:32:03.334Z,11.15
2023-09-29T03:34:08.188Z,10.63
2023-09-29T03:36:11.909Z,10.98
2023-09-29T03:38:21.980Z,10.77
2023-09-29T03:40:28.068Z,10.27
2023-09-29T03:42:31.800Z,11.23
2023-09-29T03:44:35.952Z,11.38
2023-09-29T03:46:40.110Z,15.52
2023-09-29T03:48:47.682Z,11.40
2023-09-29T03:50:52.060Z,11.88
2023-09-29T03:52:55.676Z,12.52
2023-09-29T03:55:00.853Z,10.75
2023-09-29T03:57:05.433Z,11.93
2023-09-29T03:59:10.187Z,11.35
2023-09-29T04:01:16.710Z,12.60
2023-09-29T04:03:20.654Z,11.65
2023-09-29T04:05:24.450Z,11.73
2023-09-29T04:07:28.495Z,11.52
2023-09-29T04:09:32.178Z,10.98
2023-09-29T04:11:37.259Z,10.50
2023-09-29T04:13:43.121Z,10.95
2023-09-29T04:15:47.958Z,13.05
2023-09-29T04:17:52.601Z,11.07
2023-09-29T04:19:58.484Z,10.38
2023-09-29T04:22:02.508Z,10.35
2023-09-29T04:24:06.901Z,11.50
2023-09-29T04:26:17.219Z,13.73
2023-09-29T04:28:22.371Z,11.25
2023-09-29T04:30:26.766Z,13.52
2023-09-29T04:32:30.512Z,11.48
2023-09-29T04:34:34.077Z,12.00
2023-09-29T04:36:37.806Z,12.85
2023-09-29T04:38:42.518Z,10.85
2023-09-29T04:40:46.192Z,13.80
2023-09-29T04:42:50.485Z,10.63
2023-09-29T04:44:54.437Z,11.20
2023-09-29T04:46:58.304Z,10.77
2023-09-29T04:49:05.265Z,11.23
2023-09-29T04:51:10.174Z,11.23
2023-09-29T04:53:13.992Z,11.13
2023-09-29T04:55:18.088Z,11.05
2023-09-29T04:57:20.873Z,11.45
2023-09-29T04:59:24.472Z,13.07
2023-09-29T05:01:29.890Z,10.43
2023-09-29T05:03:33.529Z,10.73
2023-09-29T05:05:37.354Z,11.00
2023-09-29T05:07:41.651Z,10.85
2023-09-29T05:09:47.384Z,13.68
2023-09-29T05:11:51.608Z,11.50
2023-09-29T05:13:56.352Z,10.30
2023-09-29T05:16:00.181Z,11.10
2023-09-29T05:18:05.788Z,11.60
2023-09-29T05:20:11.419Z,11.80
2023-09-29T05:22:15.369Z,11.55
2023-09-29T05:24:19.965Z,10.93
2023-09-29T05:26:22.695Z,14.60
2023-09-29T05:28:26.331Z,15.00
2023-09-29T05:30:31.567Z,17.10
2023-09-29T05:32:34.951Z,15.10
2023-09-29T05:34:40.577Z,17.10
2023-09-29T05:36:46.748Z,12.80
2023-09-29T05:38:51.688Z,12.30
2023-09-29T05:40:54.604Z,12.35
2023-09-29T05:42:58.456Z,14.23
2023-09-29T05:45:05.538Z,18.30
2023-09-29T05:47:09.407Z,11.73
2023-09-29T05:49:13.423Z,10.73
2023-09-29T05:51:18.890Z,12.40
2023-09-29T05:53:22.691Z,10.18
2023-09-29T05:55:26.696Z,11.98
2023-09-29T05:57:31.392Z,13.48
2023-09-29T05:59:34.331Z,12.30
2023-09-29T06:01:39.116Z,11.30
2023-09-29T06:03:43.247Z,10.90
2023-09-29T06:05:47.163Z,12.18
2023-09-29T06:07:51.302Z,12.23
2023-09-29T06:09:55.030Z,12.77
2023-09-29T06:11:57.719Z,10.55
2023-09-29T06:14:01.978Z,11.63
2023-09-29T06:16:05.946Z,15.27
2023-09-29T06:18:09.896Z,11.38
2023-09-29T06:20:14.444Z,10.35
2023-09-29T06:22:18.696Z,12.45
2023-09-29T06:24:23.766Z,13.02
2023-09-29T06:26:27.896Z,10.05
2023-09-29T06:28:32.108Z,11.82
2023-09-29T06:30:36.046Z,10.77
2023-09-29T06:32:39.184Z,12.02
2023-09-29T06:34:43.098Z,11.57
2023-09-29T06:36:47.424Z,13.23
2023-09-29T06:38:51.363Z,13.40
2023-09-29T06:40:58.693Z,15.93
2023-09-29T06:43:02.643Z,12.88
2023-09-29T06:45:07.763Z,12.13
2023-09-29T06:47:11.651Z,12.68
2023-09-29T06:49:15.464Z,16.13
2023-09-29T06:51:19.671Z,13.73
2023-09-29T06:53:23.699Z,12.18
2023-09-29T06:55:27.479Z,14.57
2023-09-29T06:57:33.284Z,12.75
2023-09-29T06:59:37.888Z,13.75
2023-09-29T07:01:42.039Z,12.02
2023-09-29T07:03:47.091Z,12.65
2023-09-29T07:05:51.148Z,11.93
2023-09-29T07:07:55.957Z,11.52
2023-09-29T07:10:00.607Z,12.68
2023-09-29T07:12:04.734Z,13.52
2023-09-29T07:14:10.150Z,13.85
2023-09-29T07:16:15.129Z,11.07
2023-09-29T07:18:19.561Z,12.55
2023-09-29T07:20:23.767Z,13.15
2023-09-29T07:22:27.740Z,14.98
2023-09-29T07:24:31.399Z,13.75
2023-09-29T07:26:35.289Z,13.80
2023-09-29T07:28:39.246Z,17.27
2023-09-29T07:30:45.740Z,15.82
2023-09-29T07:32:49.543Z,13.50
2023-09-29T07:34:52.326Z,14.80
2023-09-29T07:36:56.281Z,16.65
2023-09-29T07:39:00.622Z,14.23
2023-09-29T07:41:06.565Z,12.63
2023-09-29T07:43:09.408Z,14.25
2023-09-29T07:45:13.626Z,13.10
2023-09-29T07:47:19.305Z,12.00
2023-09-29T07:49:24.650Z,14.80
2023-09-29T07:51:28.447Z,13.32
2023-09-29T07:53:32.527Z,14.57
2023-09-29T07:55:36.582Z,13.65
2023-09-29T07:57:40.571Z,13.25
2023-09-29T07:59:44.752Z,17.17
2023-09-29T08:01:51.467Z,12.98
2023-09-29T08:03:58.750Z,12.32
2023-09-29T08:06:02.704Z,12.98
2023-09-29T08:08:07.719Z,14.30
2023-09-29T08:10:12.047Z,13.73
2023-09-29T08:12:15.811Z,12.45
2023-09-29T08:14:19.792Z,16.00
2023-09-29T08:16:25.494Z,12.93
2023-09-29T08:18:30.596Z,11.93
2023-09-29T08:20:37.564Z,14.05
2023-09-29T08:22:41.934Z,13.23
2023-09-29T08:24:47.733Z,12.05
2023-09-29T08:26:51.497Z,14.07
2023-09-29T08:28:55.417Z,13.85
2023-09-29T08:30:59.744Z,11.70
2023-09-29T08:33:17.264Z,13.43
2023-09-29T08:35:24.300Z,16.13
2023-09-29T08:37:29.750Z,14.77
2023-09-29T08:39:33.309Z,12.52
2023-09-29T08:41:37.649Z,13.95
2023-09-29T08:43:46.385Z,14.98
2023-09-29T08:45:56.175Z,12.63
2023-09-29T08:47:59.953Z,13.68
2023-09-29T08:50:05.626Z,13.73
2023-09-29T08:52:09.300Z,11.57
2023-09-29T08:54:14.438Z,14.95
2023-09-29T08:56:20.231Z,11.63
2023-09-29T08:58:24.848Z,11.45
2023-09-29T09:00:29.108Z,12.00
2023-09-29T09:02:32.361Z,13.50
2023-09-29T09:04:36.465Z,15.48
2023-09-29T09:06:40.198Z,13.32
2023-09-29T09:08:44.436Z,16.83
2023-09-29T09:10:49.996Z,15.05
2023-09-29T09:12:52.712Z,15.30
2023-09-29T09:14:57.578Z,13.70
2023-09-29T09:17:03.577Z,11.52
2023-09-29T09:19:13.839Z,12.85
2023-09-29T09:21:18.142Z,12.25
2023-09-29T09:23:22.203Z,14.25
2023-09-29T09:25:35.184Z,17.70
2023-09-29T09:27:43.639Z,12.48
2023-09-29T09:29:47.439Z,11.52
2023-09-29T09:31:54.468Z,11.32
2023-09-29T09:33:59.232Z,13.70
2023-09-29T09:36:06.841Z,11.82
2023-09-29T09:38:10.629Z,12.52
2023-09-29T09:40:14.911Z,10.73
2023-09-29T09:42:18.621Z,13.50
2023-09-29T09:44:25.185Z,9.95
2023-09-29T09:46:34.871Z,12.07
2023-09-29T09:48:45.441Z,12.80
2023-09-29T09:50:50.682Z,8.85
2023-09-29T09:52:56.027Z,11.07
2023-09-29T09:55:04.320Z,9.05
2023-09-29T09:57:10.414Z,9.50
2023-09-29T09:59:15.012Z,9.25
2023-09-29T10:01:21.158Z,8.13
2023-09-29T10:03:26.030Z,10.70
2023-09-29T10:05:32.531Z,10.88
2023-09-29T10:07:36.856Z,8.93
2023-09-29T10:09:45.466Z,9.55
2023-09-29T10:11:50.776Z,10.18
2023-09-29T10:14:03.848Z,10.20
2023-09-29T10:16:08.157Z,11.82
2023-09-29T10:18:21.161Z,8.52
2023-09-29T10:20:28.087Z,11.15
2023-09-29T10:22:33.063Z,9.27
2023-09-29T10:24:36.464Z,7.38
2023-09-29T10:26:46.929Z,9.55
2023-09-29T10:28:50.801Z,8.48
2023-09-29T10:30:54.984Z,10.45
2023-09-29T10:33:07.891Z,11.07
2023-09-29T10:35:20.233Z,7.57
2023-09-29T10:37:27.769Z,8.90
2023-09-29T10:39:32.271Z,11.80
2023-09-29T10:41:39.494Z,8.75
2023-09-29T10:43:45.399Z,8.23
2023-09-29T10:45:48.903Z,9.98
2023-09-29T10:47:52.816Z,7.05
2023-09-29T10:49:57.017Z,8.32
2023-09-29T10:52:02.665Z,9.20
2023-09-29T10:54:08.767Z,11.35
2023-09-29T10:56:13.062Z,9.63
2023-09-29T10:58:17.979Z,8.68
2023-09-29T11:00:22.454Z,10.10
2023-09-29T11:02:30.930Z,11.02
2023-09-29T11:04:34.871Z,7.90
2023-09-29T11:06:43.773Z,7.90
2023-09-29T11:08:56.124Z,10.00
2023-09-29T11:11:01.338Z,8.07
2023-09-29T11:13:05.423Z,7.90
2023-09-29T11:15:10.839Z,8.32
2023-09-29T11:17:14.859Z,8.23
2023-09-29T11:19:18.894Z,9.77
2023-09-29T11:21:26.265Z,7.03
2023-09-29T11:23:43.607Z,6.95
2023-09-29T11:25:49.752Z,9.32
2023-09-29T11:27:54.287Z,8.43
2023-09-29T11:29:58.062Z,6.40
2023-09-29T11:32:02.686Z,6.63
2023-09-29T11:34:08.384Z,9.13
2023-09-29T11:36:16.492Z,9.60
2023-09-29T11:38:22.182Z,8.23
2023-09-29T11:40:28.506Z,6.20
2023-09-29T11:42:34.105Z,6.15
2023-09-29T11:44:38.132Z,7.93
2023-09-29T11:46:42.587Z,6.32
2023-09-29T11:48:46.885Z,6.10
2023-09-29T11:50:54.419Z,8.10
2023-09-29T11:52:57.265Z,6.00
2023-09-29T11:55:01.197Z,8.70
2023-09-29T11:57:06.552Z,6.63
2023-09-29T11:59:12.776Z,11.82
2023-09-29T12:01:16.359Z,6.25
2023-09-29T12:03:23.000Z,7.38
2023-09-29T12:05:26.910Z,5.55
2023-09-29T12:07:31.005Z,5.25
2023-09-29T12:09:34.947Z,7.35
2023-09-29T12:11:39.381Z,7.05
2023-09-29T12:13:44.566Z,5.28
2023-09-29T12:15:50.268Z,5.75
2023-09-29T12:17:55.451Z,11.18
2023-09-29T12:20:00.283Z,5.53
2023-09-29T12:22:05.270Z,5.18
2023-09-29T12:24:10.166Z,5.78
2023-09-29T12:26:15.069Z,5.50
2023-09-29T12:28:22.425Z,7.03
2023-09-29T12:30:33.434Z,6.90
2023-09-29T12:32:38.342Z,6.88
2023-09-29T12:34:43.677Z,7.45
2023-09-29T12:36:47.921Z,6.50
2023-09-29T12:38:52.468Z,6.93
2023-09-29T12:40:57.377Z,4.80
2023-09-29T12:43:03.857Z,9.02
2023-09-29T12:45:08.285Z,5.85
2023-09-29T12:47:12.676Z,4.75
2023-09-29T12:49:22.213Z,5.45
2023-09-29T12:51:28.654Z,6.25
2023-09-29T12:53:33.347Z,5.07
2023-09-29T12:55:39.465Z,5.72
2023-09-29T12:57:44.719Z,4.18
2023-09-29T12:59:49.185Z,3.90
2023-09-29T13:01:54.645Z,3.45
2023-09-29T13:03:59.060Z,3.55
2023-09-29T13:06:05.058Z,3.78
2023-09-29T13:08:12.006Z,4.45
2023-09-29T13:10:20.651Z,7.25
2023-09-29T13:12:31.371Z,5.95
2023-09-29T13:14:36.850Z,8.02
2023-09-29T13:16:41.117Z,8.57
2023-09-29T13:18:46.991Z,4.57
2023-09-29T13:20:53.340Z,5.45
2023-09-29T13:23:00.266Z,11.52
2023-09-29T13:25:05.716Z,5.35
2023-09-29T13:27:12.002Z,10.05
2023-09-29T13:29:17.235Z,7.15
2023-09-29T13:31:21.809Z,9.70
2023-09-29T13:33:28.563Z,7.65
2023-09-29T13:35:33.746Z,8.18
2023-09-29T13:37:38.664Z,9.18
2023-09-29T13:39:44.820Z,7.97
2023-09-29T13:41:49.559Z,12.13
2023-09-29T13:43:54.506Z,10.18
2023-09-29T13:45:58.808Z,10.90
2023-09-29T13:48:03.349Z,10.25
2023-09-29T13:50:11.794Z,10.27
2023-09-29T13:52:21.657Z,11.70
2023-09-29T13:54:26.246Z,12.73
2023-09-29T13:56:33.068Z,16.08
2023-09-29T13:58:37.607Z,18.13
2023-09-29T14:00:42.254Z,14.05
2023-09-29T14:02:49.262Z,15.95
2023-09-29T14:04:55.374Z,20.08
2023-09-29T14:06:59.494Z,22.52
2023-09-29T14:09:16.326Z,25.85
2023-09-29T14:11:22.476Z,21.98
2023-09-29T14:13:28.438Z,20.58
2023-09-29T14:15:34.179Z,21.33
2023-09-29T14:17:38.261Z,24.92
2023-09-29T14:19:41.631Z,21.58
2023-09-29T14:21:45.963Z,29.13
2023-09-29T14:23:50.251Z,31.23
2023-09-29T14:25:54.858Z,32.83
2023-09-29T14:28:02.457Z,31.73
2023-09-29T14:30:10.113Z,40.15
2023-09-29T14:32:14.315Z,35.60
2023-09-29T14:34:19.065Z,37.63
2023-09-29T14:36:24.146Z,38.80
2023-09-29T14:38:28.656Z,35.95
2023-09-29T14:40:33.840Z,36.33
2023-09-29T14:42:38.051Z,36.38
2023-09-29T14:44:43.605Z,37.63
2023-09-29T14:46:49.453Z,36.45
2023-09-29T14:48:55.093Z,32.47
2023-09-29T14:50:59.737Z,32.45
2023-09-29T14:53:04.168Z,37.40
2023-09-29T14:55:09.668Z,35.47
2023-09-29T14:57:16.372Z,34.88
2023-09-29T14:59:21.332Z,31.60
2023-09-29T15:01:29.145Z,32.58
2023-09-29T15:03:34.990Z,34.92
2023-09-29T15:05:41.503Z,33.50
2023-09-29T15:07:45.979Z,34.08
2023-09-29T15:09:49.849Z,31.15
2023-09-29T15:11:53.654Z,32.65
2023-09-29T15:13:57.991Z,32.58
2023-09-29T15:16:02.215Z,35.22
2023-09-29T15:18:07.284Z,34.60
2023-09-29T15:20:12.674Z,31.95
2023-09-29T15:22:17.033Z,32.38
2023-09-29T15:24:20.249Z,34.47
2023-09-29T15:26:25.723Z,35.95
2023-09-29T15:28:30.475Z,33.67
2023-09-29T15:30:34.793Z,31.05
2023-09-29T15:32:39.371Z,33.67
2023-09-29T15:34:43.717Z,32.53
2023-09-29T15:36:49.765Z,31.52
2023-09-29T15:38:54.070Z,34.05
2023-09-29T15:40:58.098Z,34.65
2023-09-29T15:43:03.515Z,35.35
2023-09-29T15:45:09.297Z,31.13
2023-09-29T15:47:13.310Z,34.45
2023-09-29T15:49:18.885Z,33.72
2023-09-29T15:51:21.871Z,34.33
2023-09-29T15:53:27.194Z,31.45
2023-09-29T15:55:31.798Z,33.53
2023-09-29T15:57:36.081Z,34.83
2023-09-29T15:59:40.285Z,32.53
2023-09-29T16:01:44.371Z,32.17
2023-09-29T16:03:50.130Z,29.80
2023-09-29T16:05:53.227Z,30.98
2023-09-29T16:07:59.654Z,31.17
2023-09-29T16:10:05.467Z,29.60
2023-09-29T16:12:09.881Z,32.55
2023-09-29T16:14:14.415Z,31.00
2023-09-29T16:16:18.593Z,31.88
2023-09-29T16:18:22.424Z,31.92
2023-09-29T16:20:38.019Z,28.50
2023-09-29T16:22:44.832Z,27.40
2023-09-29T16:24:53.103Z,27.42
2023-09-29T16:27:00.033Z,26.80
2023-09-29T16:29:04.896Z,23.70
2023-09-29T16:31:13.812Z,28.65
2023-09-29T16:33:19.589Z,25.63
2023-09-29T16:35:35.877Z,27.48
2023-09-29T16:37:41.701Z,30.38
2023-09-29T16:39:45.619Z,27.52
2023-09-29T16:41:49.756Z,26.90
2023-09-29T16:43:55.708Z,26.05
2023-09-29T16:46:00.650Z,24.30
2023-09-29T16:48:04.735Z,25.63
2023-09-29T16:50:12.244Z,26.45
2023-09-29T16:52:16.089Z,24.40
2023-09-29T16:54:21.588Z,23.25
2023-09-29T16:56:26.964Z,22.25
2023-09-29T16:58:31.095Z,26.15
2023-09-29T17:00:37.199Z,25.35
2023-09-29T17:02:40.995Z,23.08
2023-09-29T17:04:46.444Z,23.85
2023-09-29T17:06:50.819Z,23.55
2023-09-29T17:08:56.230Z,24.48
2023-09-29T17:11:00.227Z,23.00
2023-09-29T17:13:05.857Z,26.35
2023-09-29T17:15:14.173Z,24.50
2023-09-29T17:17:22.166Z,20.67
2023-09-29T17:19:26.147Z,24.08
2023-09-29T17:21:31.968Z,24.52
2023-09-29T17:23:36.845Z,21.33
2023-09-29T17:25:43.392Z,23.58
2023-09-29T17:27:49.363Z,25.55
2023-09-29T17:29:53.392Z,25.58
2023-09-29T17:31:58.115Z,22.67
2023-09-29T17:34:03.480Z,24.60
2023-09-29T17:36:07.321Z,24.38
2023-09-29T17:38:11.297Z,23.85
2023-09-29T17:40:17.062Z,26.40
2023-09-29T17:42:25.505Z,22.02
2023-09-29T17:44:30.268Z,20.85
2023-09-29T17:46:33.485Z,21.58
2023-09-29T17:48:55.213Z,22.15
2023-09-29T17:51:01.301Z,17.95
2023-09-29T17:53:06.857Z,22.20
2023-09-29T17:55:11.374Z,19.98
2023-09-29T17:57:19.841Z,23.58
2023-09-29T17:59:25.894Z,22.00
2023-09-29T18:01:29.890Z,22.40
2023-09-29T18:03:33.358Z,21.10
2023-09-29T18:05:38.674Z,22.25
2023-09-29T18:07:43.908Z,21.02
2023-09-29T18:09:48.065Z,21.33
2023-09-29T18:11:51.830Z,22.13
2023-09-29T18:13:58.159Z,21.45
2023-09-29T18:16:02.366Z,23.55
2023-09-29T18:18:07.144Z,20.83
2023-09-29T18:20:11.946Z,20.70
2023-09-29T18:22:16.525Z,19.58
2023-09-29T18:24:25.040Z,23.38
2023-09-29T18:26:29.218Z,20.55
2023-09-29T18:28:35.720Z,17.90
2023-09-29T18:30:42.421Z,19.98
2023-09-29T18:32:46.838Z,19.92
2023-09-29T18:34:51.625Z,17.75
2023-09-29T18:36:56.041Z,19.73
2023-09-29T18:39:00.444Z,19.85
2023-09-29T18:41:06.749Z,15.93
2023-09-29T18:43:12.283Z,20.02
2023-09-29T18:45:16.824Z,17.60
2023-09-29T18:47:21.015Z,20.65
2023-09-29T18:49:25.465Z,18.30
2023-09-29T18:51:29.162Z,17.33
2023-09-29T18:53:33.830Z,16.75
2023-09-29T18:55:38.428Z,16.38
2023-09-29T18:57:44.790Z,15.38
2023-09-29T18:59:48.791Z,16.20
2023-09-29T19:01:52.871Z,16.77
2023-09-29T19:03:57.260Z,17.27
2023-09-29T19:06:05.377Z,17.23
2023-09-29T19:08:10.281Z,16.45
2023-09-29T19:10:16.945Z,13.60
2023-09-29T19:12:21.304Z,14.27
2023-09-29T19:14:27.989Z,14.65
2023-09-29T19:16:32.365Z,12.43
2023-09-29T19:18:40.324Z,14.00
2023-09-29T19:20:44.954Z,9.75
2023-09-29T19:22:51.186Z,10.73
2023-09-29T19:24:55.225Z,12.82
2023-09-29T19:26:59.269Z,13.57
2023-09-29T19:29:03.481Z,12.38
2023-09-29T19:31:08.739Z,11.32
2023-09-29T19:33:12.617Z,10.80
2023-09-29T19:35:17.690Z,13.20
2023-09-29T19:37:21.705Z,13.68
2023-09-29T19:39:26.603Z,10.18
2023-09-29T19:41:30.796Z,10.25
2023-09-29T19:43:35.947Z,9.93
2023-09-29T19:45:40.222Z,9.32
2023-09-29T19:47:45.696Z,6.90
2023-09-29T19:49:50.648Z,6.22
2023-09-29T19:51:54.841Z,5.50
2023-09-29T19:53:57.814Z,4.20
2023-09-29T19:56:06.775Z,3.83
2023-09-29T19:58:11.881Z,3.72
2023-09-29T20:00:17.172Z,2.95
2023-09-29T20:02:21.510Z,2.50
2023-09-29T20:04:27.068Z,2.03
2023-09-29T20:06:31.333Z,2.30
2023-09-29T20:08:36.449Z,1.75
2023-09-29T20:10:41.661Z,2.50
2023-09-29T20:12:45.490Z,2.15
2023-09-29T20:14:50.143Z,1.88
2023-09-29T20:16:54.367Z,1.73
2023-09-29T20:18:59.038Z,3.35
2023-09-29T20:21:05.690Z,2.17
2023-09-29T20:23:10.568Z,2.33
2023-09-29T20:25:14.595Z,2.53
2023-09-29T20:27:19.034Z,2.33
2023-09-29T20:29:23.336Z,2.35
2023-09-29T20:31:27.460Z,1.75
2023-09-29T20:33:31.914Z,2.58
2023-09-29T20:35:39.082Z,2.03
2023-09-29T20:37:46.620Z,2.15
2023-09-29T20:39:51.481Z,2.45
2023-09-29T20:41:57.157Z,2.55
2023-09-29T20:44:02.705Z,2.20
2023-09-29T20:46:08.218Z,3.60
2023-09-29T20:48:12.754Z,2.97
2023-09-29T20:50:17.482Z,2.83
2023-09-29T20:52:21.607Z,2.65
2023-09-29T20:54:28.467Z,2.60
2023-09-29T20:56:41.145Z,3.22
2023-09-29T20:58:46.519Z,3.60
2023-09-29T21:00:50.365Z,3.20
2023-09-29T21:02:54.407Z,3.45
2023-09-29T21:04:58.694Z,4.82
2023-09-29T21:07:04.137Z,4.65
2023-09-29T21:09:10.291Z,5.30
2023-09-29T21:11:16.327Z,5.53
2023-09-29T21:13:20.199Z,4.57
2023-09-29T21:15:26.116Z,6.45
2023-09-29T21:17:30.276Z,6.07
2023-09-29T21:19:36.696Z,5.22
2023-09-29T21:21:42.632Z,5.65
2023-09-29T21:23:47.637Z,6.10
2023-09-29T21:25:51.926Z,7.13
2023-09-29T21:27:57.470Z,7.25
2023-09-29T21:30:00.710Z,7.68
2023-09-29T21:32:04.576Z,7.07
2023-09-29T21:34:07.519Z,4.63
2023-09-29T21:36:17.345Z,8.23
2023-09-29T21:38:21.082Z,5.47
2023-09-29T21:40:25.280Z,5.82
2023-09-29T21:42:29.575Z,7.25
2023-09-29T21:44:35.483Z,5.07
2023-09-29T21:46:40.704Z,7.88
2023-09-29T21:48:45.006Z,6.88
2023-09-29T21:50:48.916Z,8.93
2023-09-29T21:52:53.217Z,8.73
2023-09-29T21:54:57.156Z,6.68
2023-09-29T21:57:01.142Z,7.53
2023-09-29T21:59:05.361Z,6.53
2023-09-29T22:01:11.560Z,5.38
2023-09-29T22:03:19.378Z,5.00
2023-09-29T22:05:23.376Z,7.13
2023-09-29T22:07:27.618Z,6.40
2023-09-29T22:09:31.555Z,7.32
2023-09-29T22:11:38.299Z,8.63
2023-09-29T22:13:42.493Z,5.30
2023-09-29T22:15:46.824Z,8.82
2023-09-29T22:17:53.420Z,6.32
2023-09-29T22:19:58.006Z,7.75
2023-09-29T22:22:05.321Z,7.05
2023-09-29T22:24:09.889Z,5.85
2023-09-29T22:26:21.011Z,4.40
2023-09-29T22:28:24.717Z,6.50
2023-09-29T22:30:28.883Z,7.97
2023-09-29T22:32:32.962Z,8.60
2023-09-29T22:34:39.417Z,7.30
2023-09-29T22:36:43.957Z,7.20
2023-09-29T22:38:49.138Z,8.23
2023-09-29T22:40:52.703Z,5.00
2023-09-29T22:42:57.455Z,6.68
2023-09-29T22:45:06.416Z,6.85
2023-09-29T22:47:09.246Z,6.70
2023-09-29T22:49:13.628Z,6.80
2023-09-29T22:51:19.009Z,6.25
2023-09-29T22:53:24.493Z,4.68
2023-09-29T22:55:28.651Z,6.28
2023-09-29T22:57:32.646Z,7.38
2023-09-29T22:59:40.269Z,6.82
2023-09-29T23:01:44.229Z,7.40
2023-09-29T23:04:00.478Z,5.15
2023-09-29T23:06:21.088Z,6.10
2023-09-29T23:08:45.727Z,6.68
2023-09-29T23:11:04.393Z,5.57
2023-09-29T23:13:17.765Z,6.18
2023-09-29T23:15:36.709Z,6.75
2023-09-29T23:17:51.975Z,7.80
2023-09-29T23:20:14.513Z,7.05
2023-09-29T23:22:30.201Z,6.55
2023-09-29T23:24:48.181Z,9.57
2023-09-29T23:27:02.728Z,6.60
2023-09-29T23:29:17.774Z,9.43
2023-09-29T23:31:31.912Z,6.85
2023-09-29T23:33:45.896Z,6.30
2023-09-29T23:36:02.130Z,9.45
2023-09-29T23:38:19.405Z,7.10
2023-09-29T23:40:36.200Z,8.27
2023-09-29T23:42:51.497Z,6.63
2023-09-29T23:44:55.521Z,6.53
2023-09-29T23:47:09.996Z,6.55
2023-09-29T23:49:25.728Z,6.35
2023-09-29T23:51:45.896Z,7.40
2023-09-29T23:54:01.961Z,8.75
2023-09-29T23:56:22.449Z,5.80
2023-09-29T23:58:38.612Z,8.20
